Weather at Mecosta County General Hospital Heliport

Public forecast

Using degrees Fahrenheit for public forecast. Weather courtesy of forecast.io.

Closest aviation weather report (METAR) to Mecosta County General Hospital Heliport

Closest report is Roben Hood Airport, 2.1 nm (3.9 km) NW. Retrieved 2020/09/29 17:15 UTC (0 seconds ago):

KRQB 291715Z AUTO 30006G16KT 10SM SCT038 SCT048 OVC070 16/07 A2979 RMK AO2 T01560071

Closest aviation forecast (TAF) to Mecosta County General Hospital Heliport

Closest forecast is Muskegon County Airport, 45.9 nm (85.0 km) SW. Retrieved 2020/09/29 12:24 UTC (5 hours ago):

TAF KMKG 291121Z 2912/3012 28006KT P6SM SCT026 BKN060 FM291400 24011KT P6SM SCT040 FM300000 24010KT P6SM -SHRA OVC050 FM300100 26012KT 6SM -SHRA BKN025 OVC040 FM300400 27012G20KT P6SM -SHRA BKN040 FM300700 27012G20KT P6SM BKN050